sensor_id;sensor_type;location;lat;lon;timestamp;P1;durP1;ratioP1;P2;durP2;ratioP2
142;SDS011;63667;49.046;8.468;2023-12-22T00:01:58;14.90;;;3.20;;
142;SDS011;63667;49.046;8.468;2023-12-22T00:04:26;6.70;;;3.40;;
142;SDS011;63667;49.046;8.468;2023-12-22T00:06:54;5.73;;;2.80;;
142;SDS011;63667;49.046;8.468;2023-12-22T00:09:21;6.07;;;2.90;;
142;SDS011;63667;49.046;8.468;2023-12-22T00:11:48;12.63;;;3.07;;
142;SDS011;63667;49.046;8.468;2023-12-22T00:14:15;10.23;;;3.33;;
142;SDS011;63667;49.046;8.468;2023-12-22T00:16:42;8.40;;;3.10;;
142;SDS011;63667;49.046;8.468;2023-12-22T00:19:10;11.93;;;4.23;;
142;SDS011;63667;49.046;8.468;2023-12-22T00:21:38;8.93;;;3.07;;
142;SDS011;63667;49.046;8.468;2023-12-22T00:24:06;10.97;;;3.60;;
142;SDS011;63667;49.046;8.468;2023-12-22T00:26:33;10.80;;;3.50;;
142;SDS011;63667;49.046;8.468;2023-12-22T00:29:00;7.27;;;3.40;;
142;SDS011;63667;49.046;8.468;2023-12-22T00:31:28;9.03;;;3.30;;
142;SDS011;63667;49.046;8.468;2023-12-22T00:33:56;8.60;;;3.40;;
142;SDS011;63667;49.046;8.468;2023-12-22T00:36:22;6.03;;;3.30;;
142;SDS011;63667;49.046;8.468;2023-12-22T00:38:50;7.07;;;3.13;;
142;SDS011;63667;49.046;8.468;2023-12-22T00:41:18;10.27;;;3.27;;
142;SDS011;63667;49.046;8.468;2023-12-22T00:43:45;6.03;;;3.37;;
142;SDS011;63667;49.046;8.468;2023-12-22T00:46:13;10.70;;;3.70;;
142;SDS011;63667;49.046;8.468;2023-12-22T00:48:40;8.17;;;3.20;;
142;SDS011;63667;49.046;8.468;2023-12-22T00:51:08;8.77;;;2.90;;
142;SDS011;63667;49.046;8.468;2023-12-22T00:53:35;11.73;;;3.10;;
142;SDS011;63667;49.046;8.468;2023-12-22T00:56:03;14.17;;;3.40;;
142;SDS011;63667;49.046;8.468;2023-12-22T00:58:31;8.87;;;3.47;;
142;SDS011;63667;49.046;8.468;2023-12-22T01:00:59;7.67;;;3.33;;
142;SDS011;63667;49.046;8.468;2023-12-22T01:03:28;8.70;;;3.13;;
142;SDS011;63667;49.046;8.468;2023-12-22T01:05:57;7.40;;;3.00;;
142;SDS011;63667;49.046;8.468;2023-12-22T01:08:25;7.20;;;2.90;;
142;SDS011;63667;49.046;8.468;2023-12-22T01:10:52;7.67;;;2.47;;
142;SDS011;63667;49.046;8.468;2023-12-22T01:13:20;7.33;;;2.80;;
142;SDS011;63667;49.046;8.468;2023-12-22T01:15:47;8.33;;;2.60;;
142;SDS011;63667;49.046;8.468;2023-12-22T01:18:14;7.00;;;2.60;;
142;SDS011;63667;49.046;8.468;2023-12-22T01:20:42;10.13;;;2.57;;
142;SDS011;63667;49.046;8.468;2023-12-22T01:23:10;5.80;;;2.43;;
142;SDS011;63667;49.046;8.468;2023-12-22T01:25:37;6.20;;;2.30;;
142;SDS011;63667;49.046;8.468;2023-12-22T01:28:05;5.27;;;2.13;;
142;SDS011;63667;49.046;8.468;2023-12-22T01:30:33;3.90;;;2.30;;
142;SDS011;63667;49.046;8.468;2023-12-22T01:33:01;5.07;;;2.37;;
142;SDS011;63667;49.046;8.468;2023-12-22T01:35:29;5.00;;;2.37;;
142;SDS011;63667;49.046;8.468;2023-12-22T01:37:56;7.20;;;2.20;;
142;SDS011;63667;49.046;8.468;2023-12-22T01:40:23;12.07;;;2.27;;
142;SDS011;63667;49.046;8.468;2023-12-22T01:42:51;11.10;;;2.30;;
142;SDS011;63667;49.046;8.468;2023-12-22T01:45:18;5.40;;;2.07;;
142;SDS011;63667;49.046;8.468;2023-12-22T01:47:46;4.43;;;2.23;;
142;SDS011;63667;49.046;8.468;2023-12-22T01:50:13;4.13;;;2.20;;
142;SDS011;63667;49.046;8.468;2023-12-22T01:52:44;4.13;;;2.43;;
142;SDS011;63667;49.046;8.468;2023-12-22T01:55:28;4.87;;;1.97;;
142;SDS011;63667;49.046;8.468;2023-12-22T01:57:55;10.23;;;2.10;;
142;SDS011;63667;49.046;8.468;2023-12-22T02:00:23;6.30;;;2.10;;
142;SDS011;63667;49.046;8.468;2023-12-22T02:02:50;3.83;;;2.03;;
142;SDS011;63667;49.046;8.468;2023-12-22T02:05:18;3.77;;;1.90;;
142;SDS011;63667;49.046;8.468;2023-12-22T02:07:45;5.43;;;1.90;;
142;SDS011;63667;49.046;8.468;2023-12-22T02:10:18;7.80;;;2.83;;
142;SDS011;63667;49.046;8.468;2023-12-22T02:12:48;5.43;;;2.00;;
142;SDS011;63667;49.046;8.468;2023-12-22T02:15:16;5.60;;;2.30;;
142;SDS011;63667;49.046;8.468;2023-12-22T02:20:12;8.43;;;2.77;;
142;SDS011;63667;49.046;8.468;2023-12-22T02:22:40;4.60;;;2.10;;
142;SDS011;63667;49.046;8.468;2023-12-22T02:25:06;5.53;;;2.20;;
142;SDS011;63667;49.046;8.468;2023-12-22T02:27:38;2.50;;;2.07;;
142;SDS011;63667;49.046;8.468;2023-12-22T02:30:12;8.00;;;2.30;;
142;SDS011;63667;49.046;8.468;2023-12-22T02:32:40;6.93;;;2.43;;
142;SDS011;63667;49.046;8.468;2023-12-22T02:35:11;9.33;;;2.60;;
142;SDS011;63667;49.046;8.468;2023-12-22T02:37:41;7.70;;;2.40;;
142;SDS011;63667;49.046;8.468;2023-12-22T02:40:08;5.83;;;2.47;;
142;SDS011;63667;49.046;8.468;2023-12-22T02:42:39;3.30;;;2.00;;
142;SDS011;63667;49.046;8.468;2023-12-22T02:45:06;5.93;;;2.33;;
142;SDS011;63667;49.046;8.468;2023-12-22T02:47:33;8.70;;;2.57;;
142;SDS011;63667;49.046;8.468;2023-12-22T02:50:01;5.23;;;2.53;;
142;SDS011;63667;49.046;8.468;2023-12-22T02:52:29;10.90;;;2.50;;
142;SDS011;63667;49.046;8.468;2023-12-22T02:54:58;5.13;;;2.40;;
142;SDS011;63667;49.046;8.468;2023-12-22T02:57:25;9.17;;;2.70;;
142;SDS011;63667;49.046;8.468;2023-12-22T02:59:52;13.50;;;2.70;;
142;SDS011;63667;49.046;8.468;2023-12-22T03:02:19;5.73;;;2.37;;
142;SDS011;63667;49.046;8.468;2023-12-22T03:04:47;4.13;;;2.20;;
142;SDS011;63667;49.046;8.468;2023-12-22T03:07:22;10.27;;;2.33;;
142;SDS011;63667;49.046;8.468;2023-12-22T03:09:49;10.50;;;2.93;;
142;SDS011;63667;49.046;8.468;2023-12-22T03:12:17;5.07;;;2.40;;
142;SDS011;63667;49.046;8.468;2023-12-22T03:14:44;8.20;;;2.63;;
142;SDS011;63667;49.046;8.468;2023-12-22T03:17:11;3.30;;;2.10;;
142;SDS011;63667;49.046;8.468;2023-12-22T03:19:39;6.40;;;2.60;;
142;SDS011;63667;49.046;8.468;2023-12-22T03:22:07;5.77;;;2.20;;
142;SDS011;63667;49.046;8.468;2023-12-22T03:24:34;5.73;;;2.20;;
142;SDS011;63667;49.046;8.468;2023-12-22T03:27:02;8.50;;;2.20;;
142;SDS011;63667;49.046;8.468;2023-12-22T03:29:30;8.10;;;2.40;;
142;SDS011;63667;49.046;8.468;2023-12-22T03:31:57;7.07;;;2.60;;
142;SDS011;63667;49.046;8.468;2023-12-22T03:34:25;8.40;;;2.57;;
142;SDS011;63667;49.046;8.468;2023-12-22T03:36:52;6.80;;;2.07;;
142;SDS011;63667;49.046;8.468;2023-12-22T03:39:19;4.77;;;2.60;;
142;SDS011;63667;49.046;8.468;2023-12-22T03:41:47;11.50;;;2.80;;
142;SDS011;63667;49.046;8.468;2023-12-22T03:44:14;5.03;;;2.63;;
142;SDS011;63667;49.046;8.468;2023-12-22T03:46:43;8.87;;;2.47;;
142;SDS011;63667;49.046;8.468;2023-12-22T03:49:10;5.70;;;2.27;;
142;SDS011;63667;49.046;8.468;2023-12-22T03:51:37;4.17;;;2.60;;
142;SDS011;63667;49.046;8.468;2023-12-22T03:54:07;3.87;;;2.20;;
142;SDS011;63667;49.046;8.468;2023-12-22T03:56:36;10.40;;;2.40;;
142;SDS011;63667;49.046;8.468;2023-12-22T03:59:03;5.47;;;2.20;;
142;SDS011;63667;49.046;8.468;2023-12-22T04:01:30;11.10;;;2.53;;
142;SDS011;63667;49.046;8.468;2023-12-22T04:03:58;7.73;;;2.47;;
142;SDS011;63667;49.046;8.468;2023-12-22T04:06:25;11.03;;;2.80;;
142;SDS011;63667;49.046;8.468;2023-12-22T04:08:53;8.23;;;2.50;;
142;SDS011;63667;49.046;8.468;2023-12-22T04:11:21;5.10;;;2.37;;
142;SDS011;63667;49.046;8.468;2023-12-22T04:13:49;7.37;;;2.17;;
142;SDS011;63667;49.046;8.468;2023-12-22T04:16:17;4.03;;;2.00;;
142;SDS011;63667;49.046;8.468;2023-12-22T04:18:44;9.90;;;2.73;;
142;SDS011;63667;49.046;8.468;2023-12-22T04:21:11;17.37;;;2.33;;
142;SDS011;63667;49.046;8.468;2023-12-22T04:23:39;4.80;;;2.63;;
142;SDS011;63667;49.046;8.468;2023-12-22T04:26:06;2.90;;;1.97;;
142;SDS011;63667;49.046;8.468;2023-12-22T04:28:33;5.67;;;2.10;;
142;SDS011;63667;49.046;8.468;2023-12-22T04:31:02;4.83;;;2.20;;
142;SDS011;63667;49.046;8.468;2023-12-22T04:33:32;4.97;;;2.47;;
142;SDS011;63667;49.046;8.468;2023-12-22T04:35:59;7.50;;;2.77;;
142;SDS011;63667;49.046;8.468;2023-12-22T04:38:26;6.13;;;2.67;;
142;SDS011;63667;49.046;8.468;2023-12-22T04:40:54;6.60;;;2.37;;
142;SDS011;63667;49.046;8.468;2023-12-22T04:43:21;6.10;;;2.47;;
142;SDS011;63667;49.046;8.468;2023-12-22T04:45:48;10.30;;;2.70;;
142;SDS011;63667;49.046;8.468;2023-12-22T04:48:16;6.77;;;2.30;;
142;SDS011;63667;49.046;8.468;2023-12-22T04:50:43;4.80;;;2.47;;
142;SDS011;63667;49.046;8.468;2023-12-22T04:53:10;5.17;;;2.27;;
142;SDS011;63667;49.046;8.468;2023-12-22T04:55:38;6.40;;;2.33;;
142;SDS011;63667;49.046;8.468;2023-12-22T04:58:06;7.10;;;2.80;;
142;SDS011;63667;49.046;8.468;2023-12-22T05:00:33;5.67;;;2.63;;
142;SDS011;63667;49.046;8.468;2023-12-22T05:03:00;8.60;;;3.07;;
142;SDS011;63667;49.046;8.468;2023-12-22T05:05:29;5.70;;;2.60;;
142;SDS011;63667;49.046;8.468;2023-12-22T05:07:56;13.43;;;3.03;;
142;SDS011;63667;49.046;8.468;2023-12-22T05:10:23;4.00;;;2.30;;
142;SDS011;63667;49.046;8.468;2023-12-22T05:12:51;13.23;;;3.10;;
142;SDS011;63667;49.046;8.468;2023-12-22T05:15:20;10.00;;;2.73;;
142;SDS011;63667;49.046;8.468;2023-12-22T05:17:47;12.60;;;2.90;;
142;SDS011;63667;49.046;8.468;2023-12-22T05:20:15;9.90;;;3.07;;
142;SDS011;63667;49.046;8.468;2023-12-22T05:22:42;13.97;;;3.40;;
142;SDS011;63667;49.046;8.468;2023-12-22T05:25:12;9.33;;;3.00;;
142;SDS011;63667;49.046;8.468;2023-12-22T05:27:40;5.50;;;2.77;;
142;SDS011;63667;49.046;8.468;2023-12-22T05:30:09;10.27;;;3.00;;
142;SDS011;63667;49.046;8.468;2023-12-22T05:32:37;10.57;;;3.30;;
142;SDS011;63667;49.046;8.468;2023-12-22T05:35:05;6.70;;;2.80;;
142;SDS011;63667;49.046;8.468;2023-12-22T05:37:33;20.00;;;3.70;;
142;SDS011;63667;49.046;8.468;2023-12-22T05:40:01;13.07;;;3.60;;
142;SDS011;63667;49.046;8.468;2023-12-22T05:42:28;11.30;;;3.27;;
142;SDS011;63667;49.046;8.468;2023-12-22T05:44:55;8.33;;;2.90;;
142;SDS011;63667;49.046;8.468;2023-12-22T05:47:24;15.40;;;3.50;;
142;SDS011;63667;49.046;8.468;2023-12-22T05:49:51;8.13;;;3.07;;
142;SDS011;63667;49.046;8.468;2023-12-22T05:52:18;10.97;;;4.27;;
142;SDS011;63667;49.046;8.468;2023-12-22T05:54:45;12.37;;;2.97;;
142;SDS011;63667;49.046;8.468;2023-12-22T05:57:13;9.73;;;3.10;;
142;SDS011;63667;49.046;8.468;2023-12-22T05:59:40;9.40;;;3.30;;
142;SDS011;63667;49.046;8.468;2023-12-22T06:02:08;22.97;;;3.17;;
142;SDS011;63667;49.046;8.468;2023-12-22T06:04:35;11.20;;;3.00;;
142;SDS011;63667;49.046;8.468;2023-12-22T06:07:03;5.30;;;2.63;;
142;SDS011;63667;49.046;8.468;2023-12-22T06:09:30;10.83;;;3.37;;
142;SDS011;63667;49.046;8.468;2023-12-22T06:11:58;9.80;;;2.77;;
142;SDS011;63667;49.046;8.468;2023-12-22T06:14:26;12.20;;;3.20;;
142;SDS011;63667;49.046;8.468;2023-12-22T06:16:53;10.23;;;3.10;;
142;SDS011;63667;49.046;8.468;2023-12-22T06:19:23;8.50;;;2.93;;
142;SDS011;63667;49.046;8.468;2023-12-22T06:21:54;11.93;;;2.93;;
142;SDS011;63667;49.046;8.468;2023-12-22T06:24:21;8.03;;;2.63;;
142;SDS011;63667;49.046;8.468;2023-12-22T06:26:49;6.60;;;2.50;;
142;SDS011;63667;49.046;8.468;2023-12-22T06:29:16;13.70;;;3.27;;
142;SDS011;63667;49.046;8.468;2023-12-22T06:31:44;8.13;;;2.63;;
142;SDS011;63667;49.046;8.468;2023-12-22T06:34:16;8.00;;;2.80;;
142;SDS011;63667;49.046;8.468;2023-12-22T06:36:43;6.77;;;2.70;;
142;SDS011;63667;49.046;8.468;2023-12-22T06:39:11;10.00;;;3.33;;
142;SDS011;63667;49.046;8.468;2023-12-22T06:41:38;9.33;;;2.93;;
142;SDS011;63667;49.046;8.468;2023-12-22T06:44:05;13.03;;;2.93;;
142;SDS011;63667;49.046;8.468;2023-12-22T06:46:33;13.50;;;3.60;;
142;SDS011;63667;49.046;8.468;2023-12-22T06:49:00;10.77;;;3.20;;
142;SDS011;63667;49.046;8.468;2023-12-22T06:51:28;10.10;;;2.50;;
142;SDS011;63667;49.046;8.468;2023-12-22T06:54:02;7.10;;;2.60;;
142;SDS011;63667;49.046;8.468;2023-12-22T06:56:31;8.57;;;2.87;;
142;SDS011;63667;49.046;8.468;2023-12-22T06:58:58;7.00;;;3.07;;
142;SDS011;63667;49.046;8.468;2023-12-22T07:01:26;11.70;;;3.43;;
142;SDS011;63667;49.046;8.468;2023-12-22T07:03:53;14.70;;;3.23;;
142;SDS011;63667;49.046;8.468;2023-12-22T07:06:21;4.73;;;3.23;;
142;SDS011;63667;49.046;8.468;2023-12-22T07:11:27;11.27;;;3.40;;
142;SDS011;63667;49.046;8.468;2023-12-22T07:13:55;12.73;;;3.20;;
142;SDS011;63667;49.046;8.468;2023-12-22T07:16:22;9.83;;;2.90;;
142;SDS011;63667;49.046;8.468;2023-12-22T07:18:50;9.97;;;3.27;;
142;SDS011;63667;49.046;8.468;2023-12-22T07:21:18;13.57;;;3.47;;
142;SDS011;63667;49.046;8.468;2023-12-22T07:23:46;11.43;;;3.67;;
142;SDS011;63667;49.046;8.468;2023-12-22T07:26:15;19.03;;;4.20;;
142;SDS011;63667;49.046;8.468;2023-12-22T07:28:43;18.57;;;3.93;;
142;SDS011;63667;49.046;8.468;2023-12-22T07:31:10;17.03;;;4.03;;
142;SDS011;63667;49.046;8.468;2023-12-22T07:33:37;17.90;;;5.23;;
142;SDS011;63667;49.046;8.468;2023-12-22T07:36:05;13.70;;;4.60;;
142;SDS011;63667;49.046;8.468;2023-12-22T07:38:33;17.70;;;4.70;;
142;SDS011;63667;49.046;8.468;2023-12-22T07:41:01;17.03;;;4.30;;
142;SDS011;63667;49.046;8.468;2023-12-22T07:43:29;21.30;;;3.87;;
142;SDS011;63667;49.046;8.468;2023-12-22T07:45:57;18.97;;;4.60;;
142;SDS011;63667;49.046;8.468;2023-12-22T07:48:24;16.93;;;5.10;;
142;SDS011;63667;49.046;8.468;2023-12-22T07:50:51;19.93;;;4.33;;
142;SDS011;63667;49.046;8.468;2023-12-22T07:53:18;25.33;;;4.37;;
142;SDS011;63667;49.046;8.468;2023-12-22T07:55:47;17.30;;;4.30;;
142;SDS011;63667;49.046;8.468;2023-12-22T07:58:14;23.00;;;5.10;;
142;SDS011;63667;49.046;8.468;2023-12-22T08:00:43;17.60;;;5.07;;
142;SDS011;63667;49.046;8.468;2023-12-22T08:03:12;20.93;;;4.87;;
142;SDS011;63667;49.046;8.468;2023-12-22T08:05:39;15.73;;;5.10;;
142;SDS011;63667;49.046;8.468;2023-12-22T08:08:07;21.33;;;4.63;;
142;SDS011;63667;49.046;8.468;2023-12-22T08:10:35;13.67;;;4.00;;
142;SDS011;63667;49.046;8.468;2023-12-22T08:13:03;30.80;;;5.10;;
142;SDS011;63667;49.046;8.468;2023-12-22T08:15:30;29.57;;;5.40;;
142;SDS011;63667;49.046;8.468;2023-12-22T08:17:57;24.87;;;5.63;;
142;SDS011;63667;49.046;8.468;2023-12-22T08:20:24;21.17;;;5.03;;
142;SDS011;63667;49.046;8.468;2023-12-22T08:22:53;17.70;;;5.03;;
142;SDS011;63667;49.046;8.468;2023-12-22T08:25:20;29.80;;;5.73;;
142;SDS011;63667;49.046;8.468;2023-12-22T08:27:47;33.47;;;5.03;;
142;SDS011;63667;49.046;8.468;2023-12-22T08:30:16;20.60;;;5.50;;
142;SDS011;63667;49.046;8.468;2023-12-22T08:32:44;23.67;;;4.40;;
142;SDS011;63667;49.046;8.468;2023-12-22T08:35:11;26.63;;;5.33;;
142;SDS011;63667;49.046;8.468;2023-12-22T08:37:39;16.50;;;5.00;;
142;SDS011;63667;49.046;8.468;2023-12-22T08:40:07;31.77;;;5.90;;
142;SDS011;63667;49.046;8.468;2023-12-22T08:42:36;22.17;;;5.60;;
142;SDS011;63667;49.046;8.468;2023-12-22T08:45:03;37.87;;;5.77;;
142;SDS011;63667;49.046;8.468;2023-12-22T08:47:32;14.13;;;4.00;;
142;SDS011;63667;49.046;8.468;2023-12-22T08:49:59;10.93;;;3.97;;
142;SDS011;63667;49.046;8.468;2023-12-22T08:52:29;18.80;;;4.77;;
142;SDS011;63667;49.046;8.468;2023-12-22T08:54:57;11.90;;;4.47;;
142;SDS011;63667;49.046;8.468;2023-12-22T08:57:24;18.00;;;4.03;;
142;SDS011;63667;49.046;8.468;2023-12-22T08:59:51;15.43;;;4.67;;
142;SDS011;63667;49.046;8.468;2023-12-22T09:02:18;19.37;;;4.70;;
142;SDS011;63667;49.046;8.468;2023-12-22T09:04:46;17.93;;;5.23;;
142;SDS011;63667;49.046;8.468;2023-12-22T09:07:13;14.70;;;4.67;;
142;SDS011;63667;49.046;8.468;2023-12-22T09:09:41;26.80;;;4.53;;
142;SDS011;63667;49.046;8.468;2023-12-22T09:12:08;24.23;;;5.00;;
142;SDS011;63667;49.046;8.468;2023-12-22T09:14:35;20.73;;;4.67;;
142;SDS011;63667;49.046;8.468;2023-12-22T09:17:03;19.73;;;4.53;;
142;SDS011;63667;49.046;8.468;2023-12-22T09:19:32;14.07;;;4.40;;
142;SDS011;63667;49.046;8.468;2023-12-22T09:22:00;22.30;;;5.20;;
142;SDS011;63667;49.046;8.468;2023-12-22T09:24:27;17.47;;;4.33;;
142;SDS011;63667;49.046;8.468;2023-12-22T09:26:54;22.03;;;4.70;;
142;SDS011;63667;49.046;8.468;2023-12-22T09:29:29;16.20;;;4.20;;
142;SDS011;63667;49.046;8.468;2023-12-22T09:31:57;18.13;;;4.00;;
142;SDS011;63667;49.046;8.468;2023-12-22T09:34:25;16.90;;;3.80;;
142;SDS011;63667;49.046;8.468;2023-12-22T09:36:54;21.83;;;4.10;;
142;SDS011;63667;49.046;8.468;2023-12-22T09:39:21;24.83;;;4.80;;
142;SDS011;63667;49.046;8.468;2023-12-22T09:41:49;21.77;;;5.23;;
142;SDS011;63667;49.046;8.468;2023-12-22T09:44:18;19.20;;;4.23;;
142;SDS011;63667;49.046;8.468;2023-12-22T09:46:46;18.13;;;3.80;;
142;SDS011;63667;49.046;8.468;2023-12-22T09:49:18;13.70;;;4.10;;
142;SDS011;63667;49.046;8.468;2023-12-22T09:51:46;14.47;;;3.63;;
142;SDS011;63667;49.046;8.468;2023-12-22T09:54:14;19.37;;;4.30;;
142;SDS011;63667;49.046;8.468;2023-12-22T09:56:42;22.17;;;4.93;;
142;SDS011;63667;49.046;8.468;2023-12-22T09:59:10;27.33;;;4.30;;
142;SDS011;63667;49.046;8.468;2023-12-22T10:01:47;17.13;;;4.80;;
142;SDS011;63667;49.046;8.468;2023-12-22T10:04:25;14.53;;;4.10;;
142;SDS011;63667;49.046;8.468;2023-12-22T10:06:53;27.03;;;5.40;;
142;SDS011;63667;49.046;8.468;2023-12-22T10:09:26;21.07;;;4.03;;
142;SDS011;63667;49.046;8.468;2023-12-22T10:11:53;18.73;;;4.10;;
142;SDS011;63667;49.046;8.468;2023-12-22T10:14:22;26.20;;;4.37;;
142;SDS011;63667;49.046;8.468;2023-12-22T10:16:53;17.27;;;4.90;;
142;SDS011;63667;49.046;8.468;2023-12-22T10:19:38;17.77;;;4.23;;
142;SDS011;63667;49.046;8.468;2023-12-22T10:22:06;16.00;;;4.20;;
142;SDS011;63667;49.046;8.468;2023-12-22T10:27:05;14.40;;;4.40;;
142;SDS011;63667;49.046;8.468;2023-12-22T10:29:33;18.20;;;4.37;;
142;SDS011;63667;49.046;8.468;2023-12-22T10:32:00;15.43;;;4.30;;
142;SDS011;63667;49.046;8.468;2023-12-22T10:34:29;26.00;;;5.00;;
142;SDS011;63667;49.046;8.468;2023-12-22T10:36:56;18.27;;;4.60;;
142;SDS011;63667;49.046;8.468;2023-12-22T10:39:26;19.20;;;4.10;;
142;SDS011;63667;49.046;8.468;2023-12-22T10:41:55;23.63;;;4.73;;
142;SDS011;63667;49.046;8.468;2023-12-22T10:44:29;28.63;;;5.40;;
142;SDS011;63667;49.046;8.468;2023-12-22T10:46:56;16.37;;;5.13;;
142;SDS011;63667;49.046;8.468;2023-12-22T10:49:24;23.07;;;4.73;;
142;SDS011;63667;49.046;8.468;2023-12-22T10:51:52;21.27;;;4.43;;
142;SDS011;63667;49.046;8.468;2023-12-22T10:54:20;29.60;;;5.63;;
142;SDS011;63667;49.046;8.468;2023-12-22T10:56:48;29.00;;;5.47;;
142;SDS011;63667;49.046;8.468;2023-12-22T10:59:18;20.13;;;4.93;;
142;SDS011;63667;49.046;8.468;2023-12-22T11:01:46;28.43;;;4.33;;
142;SDS011;63667;49.046;8.468;2023-12-22T11:04:17;22.60;;;5.07;;
142;SDS011;63667;49.046;8.468;2023-12-22T11:06:45;23.20;;;4.83;;
142;SDS011;63667;49.046;8.468;2023-12-22T11:09:14;26.13;;;5.50;;
142;SDS011;63667;49.046;8.468;2023-12-22T11:11:43;16.63;;;5.00;;
142;SDS011;63667;49.046;8.468;2023-12-22T11:14:12;16.90;;;4.40;;
142;SDS011;63667;49.046;8.468;2023-12-22T11:16:42;16.63;;;4.27;;
142;SDS011;63667;49.046;8.468;2023-12-22T11:19:13;25.53;;;4.80;;
142;SDS011;63667;49.046;8.468;2023-12-22T11:21:40;13.43;;;4.30;;
142;SDS011;63667;49.046;8.468;2023-12-22T11:24:07;16.87;;;4.50;;
142;SDS011;63667;49.046;8.468;2023-12-22T11:26:36;22.83;;;4.70;;
142;SDS011;63667;49.046;8.468;2023-12-22T11:29:03;17.40;;;4.77;;
142;SDS011;63667;49.046;8.468;2023-12-22T11:31:33;18.67;;;3.83;;
142;SDS011;63667;49.046;8.468;2023-12-22T11:34:01;16.70;;;4.17;;
142;SDS011;63667;49.046;8.468;2023-12-22T11:36:29;14.80;;;4.07;;
142;SDS011;63667;49.046;8.468;2023-12-22T11:38:57;14.07;;;3.70;;
142;SDS011;63667;49.046;8.468;2023-12-22T11:41:25;18.73;;;4.67;;
142;SDS011;63667;49.046;8.468;2023-12-22T11:43:53;18.83;;;3.77;;
142;SDS011;63667;49.046;8.468;2023-12-22T11:46:21;14.47;;;3.80;;
142;SDS011;63667;49.046;8.468;2023-12-22T11:48:50;11.47;;;3.80;;
142;SDS011;63667;49.046;8.468;2023-12-22T11:51:19;12.77;;;3.40;;
142;SDS011;63667;49.046;8.468;2023-12-22T11:53:53;14.60;;;3.57;;
142;SDS011;63667;49.046;8.468;2023-12-22T11:56:20;13.50;;;3.40;;
142;SDS011;63667;49.046;8.468;2023-12-22T11:58:48;22.17;;;4.03;;
142;SDS011;63667;49.046;8.468;2023-12-22T12:01:20;16.00;;;4.00;;
142;SDS011;63667;49.046;8.468;2023-12-22T12:03:50;14.87;;;3.63;;
142;SDS011;63667;49.046;8.468;2023-12-22T12:09:13;6.60;;;3.10;;
142;SDS011;63667;49.046;8.468;2023-12-22T12:14:21;5.80;;;2.80;;
142;SDS011;63667;49.046;8.468;2023-12-22T12:16:48;6.83;;;3.30;;
142;SDS011;63667;49.046;8.468;2023-12-22T12:19:14;7.10;;;2.70;;
142;SDS011;63667;49.046;8.468;2023-12-22T12:21:41;5.97;;;3.30;;
142;SDS011;63667;49.046;8.468;2023-12-22T12:24:08;9.60;;;3.00;;
142;SDS011;63667;49.046;8.468;2023-12-22T12:26:34;5.23;;;3.37;;
142;SDS011;63667;49.046;8.468;2023-12-22T12:29:04;6.97;;;3.70;;
142;SDS011;63667;49.046;8.468;2023-12-22T12:31:36;9.93;;;3.67;;
142;SDS011;63667;49.046;8.468;2023-12-22T12:34:06;8.10;;;3.40;;
142;SDS011;63667;49.046;8.468;2023-12-22T12:36:33;9.83;;;3.30;;
142;SDS011;63667;49.046;8.468;2023-12-22T12:39:09;10.70;;;3.47;;
142;SDS011;63667;49.046;8.468;2023-12-22T12:41:40;5.13;;;2.70;;
142;SDS011;63667;49.046;8.468;2023-12-22T12:44:09;8.50;;;3.37;;
142;SDS011;63667;49.046;8.468;2023-12-22T12:46:39;7.13;;;2.97;;
142;SDS011;63667;49.046;8.468;2023-12-22T12:49:09;8.53;;;3.60;;
142;SDS011;63667;49.046;8.468;2023-12-22T12:51:43;9.50;;;3.43;;
142;SDS011;63667;49.046;8.468;2023-12-22T12:54:11;6.73;;;3.20;;
142;SDS011;63667;49.046;8.468;2023-12-22T12:59:11;9.10;;;2.80;;
142;SDS011;63667;49.046;8.468;2023-12-22T13:01:38;6.17;;;3.03;;
142;SDS011;63667;49.046;8.468;2023-12-22T13:04:05;4.57;;;2.70;;
142;SDS011;63667;49.046;8.468;2023-12-22T13:06:32;3.50;;;2.30;;
142;SDS011;63667;49.046;8.468;2023-12-22T13:08:59;3.70;;;2.43;;
142;SDS011;63667;49.046;8.468;2023-12-22T13:11:26;4.37;;;2.30;;
142;SDS011;63667;49.046;8.468;2023-12-22T13:13:53;2.30;;;2.20;;
142;SDS011;63667;49.046;8.468;2023-12-22T13:16:20;5.40;;;2.20;;
142;SDS011;63667;49.046;8.468;2023-12-22T13:18:46;3.03;;;2.10;;
142;SDS011;63667;49.046;8.468;2023-12-22T13:21:13;2.20;;;2.00;;
142;SDS011;63667;49.046;8.468;2023-12-22T13:23:40;3.80;;;2.00;;
142;SDS011;63667;49.046;8.468;2023-12-22T13:26:17;3.97;;;1.97;;
142;SDS011;63667;49.046;8.468;2023-12-22T13:28:43;3.50;;;2.20;;
142;SDS011;63667;49.046;8.468;2023-12-22T13:31:10;2.90;;;1.80;;
142;SDS011;63667;49.046;8.468;2023-12-22T13:33:39;2.30;;;2.10;;
142;SDS011;63667;49.046;8.468;2023-12-22T13:36:06;3.70;;;1.93;;
142;SDS011;63667;49.046;8.468;2023-12-22T13:38:32;2.03;;;1.83;;
142;SDS011;63667;49.046;8.468;2023-12-22T13:41:02;4.17;;;2.43;;
142;SDS011;63667;49.046;8.468;2023-12-22T13:43:29;2.70;;;2.20;;
142;SDS011;63667;49.046;8.468;2023-12-22T13:45:55;4.23;;;2.17;;
142;SDS011;63667;49.046;8.468;2023-12-22T13:48:22;2.33;;;2.20;;
142;SDS011;63667;49.046;8.468;2023-12-22T13:50:58;2.27;;;1.97;;
142;SDS011;63667;49.046;8.468;2023-12-22T13:53:25;4.77;;;2.40;;
142;SDS011;63667;49.046;8.468;2023-12-22T13:55:57;5.00;;;2.00;;
142;SDS011;63667;49.046;8.468;2023-12-22T13:58:24;3.20;;;2.13;;
142;SDS011;63667;49.046;8.468;2023-12-22T14:00:51;2.57;;;2.10;;
142;SDS011;63667;49.046;8.468;2023-12-22T14:03:18;5.73;;;2.40;;
142;SDS011;63667;49.046;8.468;2023-12-22T14:05:48;3.60;;;1.90;;
142;SDS011;63667;49.046;8.468;2023-12-22T14:08:15;2.00;;;1.80;;
142;SDS011;63667;49.046;8.468;2023-12-22T14:10:45;3.90;;;2.00;;
142;SDS011;63667;49.046;8.468;2023-12-22T14:13:15;3.20;;;1.90;;
142;SDS011;63667;49.046;8.468;2023-12-22T14:15:42;6.83;;;1.90;;
142;SDS011;63667;49.046;8.468;2023-12-22T14:18:09;2.13;;;1.67;;
142;SDS011;63667;49.046;8.468;2023-12-22T14:20:35;2.03;;;1.77;;
142;SDS011;63667;49.046;8.468;2023-12-22T14:23:02;2.73;;;2.53;;
142;SDS011;63667;49.046;8.468;2023-12-22T14:25:29;3.37;;;2.63;;
142;SDS011;63667;49.046;8.468;2023-12-22T14:27:57;2.43;;;2.10;;
142;SDS011;63667;49.046;8.468;2023-12-22T14:30:24;1.90;;;1.53;;
142;SDS011;63667;49.046;8.468;2023-12-22T14:32:50;2.90;;;2.00;;
142;SDS011;63667;49.046;8.468;2023-12-22T14:35:17;2.10;;;1.90;;
142;SDS011;63667;49.046;8.468;2023-12-22T14:37:43;2.33;;;1.90;;
142;SDS011;63667;49.046;8.468;2023-12-22T14:40:11;3.07;;;2.13;;
142;SDS011;63667;49.046;8.468;2023-12-22T14:42:44;3.50;;;2.43;;
142;SDS011;63667;49.046;8.468;2023-12-22T14:45:10;2.70;;;2.00;;
142;SDS011;63667;49.046;8.468;2023-12-22T14:47:37;2.90;;;1.60;;
142;SDS011;63667;49.046;8.468;2023-12-22T14:50:03;2.20;;;1.93;;
142;SDS011;63667;49.046;8.468;2023-12-22T14:52:30;3.07;;;2.10;;
142;SDS011;63667;49.046;8.468;2023-12-22T14:55:00;2.07;;;1.90;;
142;SDS011;63667;49.046;8.468;2023-12-22T14:57:28;2.30;;;1.70;;
142;SDS011;63667;49.046;8.468;2023-12-22T14:59:54;2.60;;;1.80;;
142;SDS011;63667;49.046;8.468;2023-12-22T15:02:21;4.00;;;1.83;;
142;SDS011;63667;49.046;8.468;2023-12-22T15:04:47;3.50;;;2.90;;
142;SDS011;63667;49.046;8.468;2023-12-22T15:07:15;3.73;;;1.90;;
142;SDS011;63667;49.046;8.468;2023-12-22T15:09:42;2.27;;;1.73;;
142;SDS011;63667;49.046;8.468;2023-12-22T15:12:08;2.40;;;1.80;;
142;SDS011;63667;49.046;8.468;2023-12-22T15:14:35;3.13;;;1.80;;
142;SDS011;63667;49.046;8.468;2023-12-22T15:17:01;2.20;;;1.80;;
142;SDS011;63667;49.046;8.468;2023-12-22T15:19:28;2.40;;;1.80;;
142;SDS011;63667;49.046;8.468;2023-12-22T15:21:54;4.10;;;2.57;;
142;SDS011;63667;49.046;8.468;2023-12-22T15:24:20;5.40;;;1.80;;
142;SDS011;63667;49.046;8.468;2023-12-22T15:26:48;2.33;;;1.80;;
142;SDS011;63667;49.046;8.468;2023-12-22T15:29:15;3.67;;;2.27;;
142;SDS011;63667;49.046;8.468;2023-12-22T15:31:41;4.63;;;2.77;;